createdAt,value
2018-08-18T00:00:15.304Z,5.00
2018-08-18T00:02:43.737Z,3.10
2018-08-18T00:05:12.809Z,3.83
2018-08-18T00:07:41.250Z,4.57
2018-08-18T00:10:10.352Z,3.93
2018-08-18T00:12:38.714Z,4.97
2018-08-18T00:15:08.259Z,5.50
2018-08-18T00:17:43.791Z,4.87
2018-08-18T00:20:16.280Z,4.80
2018-08-18T00:22:44.708Z,4.33
2018-08-18T00:25:13.717Z,5.17
2018-08-18T00:27:42.098Z,5.00
2018-08-18T00:30:16.127Z,4.10
2018-08-18T00:32:44.871Z,5.13
2018-08-18T00:35:14.052Z,4.93
2018-08-18T00:37:42.436Z,4.43
2018-08-18T00:40:11.630Z,5.03
2018-08-18T00:42:40.389Z,5.27
2018-08-18T00:45:10.334Z,6.30
2018-08-18T00:47:39.020Z,5.70
2018-08-18T00:50:08.136Z,5.57
2018-08-18T00:52:36.676Z,5.50
2018-08-18T00:55:05.208Z,6.30
2018-08-18T00:57:34.084Z,6.80
2018-08-18T01:00:02.472Z,6.13
2018-08-18T01:02:30.851Z,7.13
2018-08-18T01:05:00.465Z,6.33
2018-08-18T01:07:29.889Z,4.50
2018-08-18T01:09:58.977Z,4.30
2018-08-18T01:12:27.880Z,4.13
2018-08-18T01:14:56.455Z,4.93
2018-08-18T01:17:25.120Z,5.23
2018-08-18T01:19:54.698Z,5.70
2018-08-18T01:22:23.066Z,6.77
2018-08-18T01:24:52.079Z,5.97
2018-08-18T01:27:20.664Z,6.77
2018-08-18T01:30:05.412Z,5.60
2018-08-18T01:32:34.204Z,6.27
2018-08-18T01:35:02.718Z,5.37
2018-08-18T01:37:32.118Z,5.83
2018-08-18T01:40:00.696Z,4.87
2018-08-18T01:42:32.491Z,4.40
2018-08-18T01:45:00.820Z,3.70
2018-08-18T01:47:29.345Z,4.50
2018-08-18T01:49:59.225Z,3.00
2018-08-18T01:52:27.582Z,4.63
2018-08-18T01:54:56.324Z,3.60
2018-08-18T01:57:24.660Z,4.47
2018-08-18T01:59:53.016Z,4.40
2018-08-18T02:02:24.514Z,5.10
2018-08-18T02:04:53.101Z,3.40
2018-08-18T02:07:24.734Z,4.20
2018-08-18T02:09:53.368Z,4.60
2018-08-18T02:12:22.238Z,4.67
2018-08-18T02:14:50.701Z,4.70
2018-08-18T02:17:23.452Z,6.43
2018-08-18T02:19:52.095Z,5.33
2018-08-18T02:22:20.710Z,4.87
2018-08-18T02:24:49.104Z,3.30
2018-08-18T02:27:18.191Z,3.40
2018-08-18T02:29:57.775Z,4.20
2018-08-18T02:32:32.804Z,2.93
2018-08-18T02:35:01.300Z,3.13
2018-08-18T02:37:30.359Z,5.00
2018-08-18T02:39:58.723Z,5.63
2018-08-18T02:42:27.057Z,5.17
2018-08-18T02:44:55.394Z,5.53
2018-08-18T02:47:24.114Z,3.93
2018-08-18T02:49:53.582Z,3.60
2018-08-18T02:52:23.404Z,5.90
2018-08-18T02:54:59.815Z,4.17
2018-08-18T02:57:43.847Z,4.40
2018-08-18T03:00:26.810Z,5.83
2018-08-18T03:02:55.147Z,5.37
2018-08-18T03:05:23.488Z,4.90
2018-08-18T03:07:52.675Z,4.17
2018-08-18T03:10:24.788Z,4.47
2018-08-18T03:12:58.413Z,4.03
2018-08-18T03:16:07.811Z,4.60
2018-08-18T03:18:45.699Z,3.43
2018-08-18T03:21:14.185Z,3.90
2018-08-18T03:23:54.046Z,4.63
2018-08-18T03:26:28.259Z,5.87
2018-08-18T03:28:56.677Z,5.00
2018-08-18T03:31:25.010Z,3.17
2018-08-18T03:33:53.570Z,5.50
2018-08-18T03:36:30.189Z,6.53
2018-08-18T03:38:58.951Z,4.60
2018-08-18T03:41:28.338Z,5.23
2018-08-18T03:43:57.195Z,5.80
2018-08-18T03:46:25.666Z,5.83
2018-08-18T03:48:54.078Z,6.80
2018-08-18T03:51:28.488Z,5.60
2018-08-18T03:53:56.960Z,5.80
2018-08-18T03:56:25.348Z,6.23
2018-08-18T03:58:54.893Z,6.20
2018-08-18T04:01:59.141Z,7.03
2018-08-18T04:04:29.783Z,7.27
2018-08-18T04:06:59.103Z,4.83
2018-08-18T04:09:28.659Z,5.17
2018-08-18T04:11:58.200Z,3.70
2018-08-18T04:14:33.727Z,3.43
2018-08-18T04:17:02.153Z,3.03
2018-08-18T04:19:30.560Z,3.47
2018-08-18T04:21:58.917Z,2.87
2018-08-18T04:24:45.090Z,4.27
2018-08-18T04:27:28.067Z,3.73
2018-08-18T04:29:56.538Z,5.50
2018-08-18T04:32:25.025Z,4.30
2018-08-18T04:34:53.348Z,6.20
2018-08-18T04:37:21.679Z,3.20
2018-08-18T04:39:50.703Z,5.90
2018-08-18T04:42:19.031Z,4.17
2018-08-18T04:44:47.376Z,4.73
2018-08-18T04:47:26.946Z,3.60
2018-08-18T04:49:55.288Z,3.80
2018-08-18T04:52:23.625Z,4.03
2018-08-18T04:54:51.957Z,4.00
2018-08-18T04:57:20.277Z,4.17
2018-08-18T04:59:48.600Z,4.10
2018-08-18T05:02:17.193Z,3.00
2018-08-18T05:04:45.592Z,5.10
2018-08-18T05:07:13.947Z,4.67
2018-08-18T05:09:42.303Z,5.10
2018-08-18T05:12:10.642Z,6.53
2018-08-18T05:14:38.933Z,4.60
2018-08-18T05:17:07.487Z,4.40
2018-08-18T05:19:35.843Z,5.00
2018-08-18T05:22:04.205Z,5.30
2018-08-18T05:24:32.601Z,4.13
2018-08-18T05:27:32.293Z,4.67
2018-08-18T05:30:00.640Z,6.17
2018-08-18T05:32:28.993Z,7.03
2018-08-18T05:34:57.385Z,5.83
2018-08-18T05:37:25.751Z,6.17
2018-08-18T05:39:54.135Z,4.60
2018-08-18T05:42:22.595Z,4.67
2018-08-18T05:44:51.017Z,3.97
2018-08-18T05:47:19.713Z,5.73
2018-08-18T05:49:48.272Z,6.30
2018-08-18T05:52:16.637Z,5.57
2018-08-18T05:54:44.967Z,4.23
2018-08-18T05:57:13.290Z,5.80
2018-08-18T05:59:41.652Z,6.37
2018-08-18T06:02:10.019Z,6.07
2018-08-18T06:04:38.393Z,7.07
2018-08-18T06:07:06.805Z,6.10
2018-08-18T06:09:35.104Z,7.07
2018-08-18T06:12:09.369Z,6.77
2018-08-18T06:14:42.957Z,6.93
2018-08-18T06:17:12.332Z,7.03
2018-08-18T06:19:40.680Z,6.13
2018-08-18T06:22:09.086Z,7.73
2018-08-18T06:24:37.432Z,8.63
2018-08-18T06:27:05.814Z,4.47
2018-08-18T06:29:34.148Z,6.77
2018-08-18T06:32:02.907Z,6.57
2018-08-18T06:34:32.846Z,8.27
2018-08-18T06:37:01.553Z,7.87
2018-08-18T06:39:45.546Z,7.50
2018-08-18T06:42:25.004Z,8.17
2018-08-18T06:44:53.425Z,8.03
2018-08-18T06:47:21.758Z,7.57
2018-08-18T06:49:50.693Z,5.30
2018-08-18T06:52:19.860Z,7.37
2018-08-18T06:54:50.064Z,6.77
2018-08-18T06:57:29.550Z,6.60
2018-08-18T07:00:02.177Z,7.20
2018-08-18T07:02:31.117Z,5.30
2018-08-18T07:04:59.462Z,5.27
2018-08-18T07:07:31.228Z,6.00
2018-08-18T07:10:07.290Z,5.33
2018-08-18T07:12:35.638Z,5.67
2018-08-18T07:15:14.483Z,4.63
2018-08-18T07:17:42.869Z,5.77
2018-08-18T07:20:11.193Z,7.00
2018-08-18T07:22:39.564Z,6.57
2018-08-18T07:25:07.953Z,6.33
2018-08-18T07:27:36.402Z,6.87
2018-08-18T07:30:05.707Z,5.57
2018-08-18T07:32:34.069Z,6.47
2018-08-18T07:35:02.785Z,5.67
2018-08-18T07:37:31.646Z,8.30
2018-08-18T07:39:59.921Z,6.63
2018-08-18T07:42:28.883Z,7.00
2018-08-18T07:44:57.382Z,7.33
2018-08-18T07:47:30.133Z,5.27
2018-08-18T07:49:58.691Z,6.33
2018-08-18T07:52:27.408Z,6.37
2018-08-18T07:54:55.732Z,6.40
2018-08-18T07:57:24.185Z,5.97
2018-08-18T07:59:52.657Z,5.77
2018-08-18T08:02:21.051Z,6.20
2018-08-18T08:04:49.398Z,5.07
2018-08-18T08:07:17.839Z,5.30
2018-08-18T08:09:46.405Z,4.90
2018-08-18T08:12:14.826Z,4.27
2018-08-18T08:14:43.276Z,5.47
2018-08-18T08:17:12.031Z,4.97
2018-08-18T08:19:40.432Z,4.60
2018-08-18T08:22:09.674Z,3.80
2018-08-18T08:24:38.054Z,3.33
2018-08-18T08:27:06.442Z,5.20
2018-08-18T08:29:37.812Z,3.90
2018-08-18T08:32:07.796Z,3.57
2018-08-18T08:34:44.618Z,4.23
2018-08-18T08:37:14.023Z,4.10
2018-08-18T08:39:42.837Z,3.40
2018-08-18T08:42:11.324Z,3.23
2018-08-18T08:44:40.533Z,3.50
2018-08-18T08:47:11.112Z,2.80
2018-08-18T08:49:39.500Z,2.60
2018-08-18T08:52:07.907Z,3.43
2018-08-18T08:54:37.578Z,2.50
2018-08-18T08:57:07.596Z,3.40
2018-08-18T08:59:37.193Z,1.97
2018-08-18T09:02:06.241Z,2.73
2018-08-18T09:04:35.029Z,4.83
2018-08-18T09:07:05.471Z,4.27
2018-08-18T09:09:33.948Z,2.03
2018-08-18T09:12:02.342Z,3.33
2018-08-18T09:14:30.677Z,4.63
2018-08-18T09:16:59.613Z,4.10
2018-08-18T09:19:27.984Z,4.43
2018-08-18T09:21:58.573Z,3.93
2018-08-18T09:24:28.368Z,3.13
2018-08-18T09:26:57.966Z,3.90
2018-08-18T09:29:27.047Z,3.33
2018-08-18T09:31:57.494Z,3.70
2018-08-18T09:34:25.854Z,4.80
2018-08-18T09:36:54.250Z,4.90
2018-08-18T09:39:33.657Z,4.93
2018-08-18T09:42:05.497Z,3.97
2018-08-18T09:44:35.362Z,3.57
2018-08-18T09:47:03.744Z,3.23
2018-08-18T09:49:32.326Z,4.07
2018-08-18T09:52:01.548Z,4.73
2018-08-18T09:54:29.979Z,5.70
2018-08-18T09:56:58.993Z,3.50
2018-08-18T09:59:28.399Z,4.40
2018-08-18T10:01:56.782Z,4.20
2018-08-18T10:04:25.313Z,5.03
2018-08-18T10:06:54.663Z,4.40
2018-08-18T10:09:23.254Z,3.70
2018-08-18T10:11:51.652Z,3.87
2018-08-18T10:14:20.014Z,4.07
2018-08-18T10:16:48.573Z,3.87
2018-08-18T10:19:17.024Z,4.47
2018-08-18T10:21:45.964Z,3.27
2018-08-18T10:24:14.311Z,3.73
2018-08-18T10:26:46.178Z,3.70
2018-08-18T10:29:17.622Z,3.00
2018-08-18T10:31:51.998Z,2.27
2018-08-18T10:34:21.399Z,3.73
2018-08-18T10:37:04.248Z,2.90
2018-08-18T10:39:32.658Z,3.33
2018-08-18T10:42:31.963Z,2.33
2018-08-18T10:45:00.557Z,3.67
2018-08-18T10:47:29.141Z,2.80
2018-08-18T10:50:08.947Z,2.67
2018-08-18T10:52:48.532Z,2.77
2018-08-18T10:55:18.056Z,3.07
2018-08-18T10:57:56.154Z,2.50
2018-08-18T11:00:25.942Z,2.77
2018-08-18T11:02:57.485Z,2.00
2018-08-18T11:05:26.539Z,2.80
2018-08-18T11:08:00.963Z,3.07
2018-08-18T11:10:30.935Z,3.50
2018-08-18T11:12:59.297Z,2.73
2018-08-18T11:15:27.739Z,2.97
2018-08-18T11:17:56.576Z,2.23
2018-08-18T11:20:27.149Z,2.43
2018-08-18T11:23:00.124Z,2.83
2018-08-18T11:25:31.876Z,2.77
2018-08-18T11:28:00.539Z,2.50
2018-08-18T11:30:29.127Z,2.67
2018-08-18T11:32:58.369Z,3.03
2018-08-18T11:35:26.827Z,3.67
2018-08-18T11:38:13.829Z,2.20
2018-08-18T11:40:42.363Z,3.60
2018-08-18T11:43:12.692Z,2.23
2018-08-18T11:45:41.819Z,2.77
2018-08-18T11:48:13.475Z,3.07
2018-08-18T11:50:42.149Z,2.47
2018-08-18T11:53:10.501Z,2.50
2018-08-18T11:55:39.147Z,2.00
2018-08-18T11:58:09.971Z,2.10
2018-08-18T12:00:43.666Z,2.23
2018-08-18T12:03:14.927Z,2.33
2018-08-18T12:05:49.619Z,2.23
2018-08-18T12:08:19.455Z,2.30
2018-08-18T12:10:48.660Z,1.90
2018-08-18T12:13:16.991Z,1.97
2018-08-18T12:15:59.508Z,2.77
2018-08-18T12:18:31.124Z,2.70
2018-08-18T12:21:00.637Z,2.80
2018-08-18T12:23:30.086Z,2.33
2018-08-18T12:26:03.718Z,2.20
2018-08-18T12:28:37.370Z,3.43
2018-08-18T12:31:07.093Z,2.10
2018-08-18T12:33:35.455Z,1.43
2018-08-18T12:36:03.925Z,2.10
2018-08-18T12:38:32.909Z,2.30
2018-08-18T12:41:01.765Z,2.20
2018-08-18T12:43:36.060Z,2.03
2018-08-18T12:46:06.013Z,2.63
2018-08-18T12:48:35.605Z,2.17
2018-08-18T12:51:04.550Z,2.00
2018-08-18T12:53:38.150Z,1.97
2018-08-18T12:56:06.966Z,2.30
2018-08-18T12:58:36.096Z,2.87
2018-08-18T13:01:04.432Z,2.83
2018-08-18T13:03:32.780Z,3.17
2018-08-18T13:06:01.173Z,2.03
2018-08-18T13:08:29.574Z,2.80
2018-08-18T13:10:57.982Z,2.70
2018-08-18T13:13:28.940Z,2.17
2018-08-18T13:15:57.338Z,2.13
2018-08-18T13:18:25.914Z,2.27
2018-08-18T13:20:55.570Z,2.20
2018-08-18T13:23:26.023Z,2.07
2018-08-18T13:25:54.830Z,2.80
2018-08-18T13:28:23.443Z,1.87
2018-08-18T13:30:51.953Z,2.57
2018-08-18T13:33:20.345Z,1.30
2018-08-18T13:35:50.166Z,1.87
2018-08-18T13:38:28.424Z,2.07
2018-08-18T13:40:56.979Z,2.40
2018-08-18T13:43:39.305Z,1.73
2018-08-18T13:46:09.782Z,1.90
2018-08-18T13:48:38.732Z,1.73
2018-08-18T13:51:08.912Z,1.57
2018-08-18T13:53:43.370Z,1.80
2018-08-18T13:56:11.819Z,1.30
2018-08-18T13:58:40.224Z,2.07
2018-08-18T14:01:23.857Z,1.13
2018-08-18T14:03:52.503Z,1.93
2018-08-18T14:06:20.950Z,1.87
2018-08-18T14:08:53.676Z,1.60
2018-08-18T14:11:22.161Z,2.13
2018-08-18T14:13:50.516Z,2.00
2018-08-18T14:16:18.954Z,1.80
2018-08-18T14:18:47.290Z,2.10
2018-08-18T14:21:15.716Z,2.13
2018-08-18T14:23:44.116Z,2.47
2018-08-18T14:26:12.485Z,1.67
2018-08-18T14:28:40.848Z,2.40
2018-08-18T14:31:09.280Z,1.47
2018-08-18T14:33:37.635Z,1.93
2018-08-18T14:36:10.730Z,2.10
2018-08-18T14:38:39.274Z,1.73
2018-08-18T14:41:07.702Z,2.10
2018-08-18T14:43:37.338Z,2.23
2018-08-18T14:46:07.794Z,1.67
2018-08-18T14:48:36.189Z,1.30
2018-08-18T14:51:04.584Z,1.50
2018-08-18T14:53:32.956Z,1.93
2018-08-18T14:56:01.420Z,1.60
2018-08-18T14:58:34.427Z,2.20
2018-08-18T15:01:09.032Z,1.93
2018-08-18T15:03:37.422Z,1.93
2018-08-18T15:06:05.933Z,1.40
2018-08-18T15:08:34.285Z,1.33
2018-08-18T15:11:02.715Z,1.30
2018-08-18T15:13:31.122Z,1.60
2018-08-18T15:15:59.557Z,1.20
2018-08-18T15:18:27.913Z,1.70
2018-08-18T15:20:57.043Z,1.30
2018-08-18T15:23:25.376Z,1.30
2018-08-18T15:25:53.741Z,3.33
2018-08-18T15:28:22.241Z,1.80
2018-08-18T15:30:52.103Z,1.67
2018-08-18T15:33:28.309Z,1.43
2018-08-18T15:35:56.770Z,1.70
2018-08-18T15:38:46.859Z,1.20
2018-08-18T15:41:15.231Z,1.33
2018-08-18T15:43:43.620Z,1.10
2018-08-18T15:46:12.005Z,1.20
2018-08-18T15:48:41.434Z,1.30
2018-08-18T15:51:10.037Z,1.30
2018-08-18T15:53:57.148Z,0.80
2018-08-18T15:56:26.472Z,0.93
2018-08-18T15:58:55.872Z,1.20
2018-08-18T16:01:25.787Z,1.23
2018-08-18T16:03:55.199Z,0.90
2018-08-18T16:06:23.888Z,1.10
2018-08-18T16:08:52.860Z,1.07
2018-08-18T16:11:21.257Z,2.23
2018-08-18T16:13:49.631Z,1.23
2018-08-18T16:16:17.998Z,1.27
2018-08-18T16:18:46.919Z,1.40
2018-08-18T16:21:22.468Z,1.30
2018-08-18T16:23:51.082Z,1.20
2018-08-18T16:26:19.437Z,1.33
2018-08-18T16:28:47.832Z,1.50
2018-08-18T16:31:16.223Z,1.43
2018-08-18T16:33:44.675Z,1.80
2018-08-18T16:36:12.999Z,1.10
2018-08-18T16:38:41.408Z,0.90
2018-08-18T16:41:09.780Z,0.70
2018-08-18T16:43:38.384Z,1.33
2018-08-18T16:46:23.496Z,1.03
2018-08-18T16:48:52.532Z,0.90
2018-08-18T16:51:21.203Z,1.20
2018-08-18T16:53:49.659Z,0.70
2018-08-18T16:56:22.166Z,0.70
2018-08-18T16:58:56.701Z,1.30
2018-08-18T17:01:25.149Z,0.70
2018-08-18T17:03:53.944Z,0.97
2018-08-18T17:06:22.388Z,1.10
2018-08-18T17:08:50.784Z,0.93
2018-08-18T17:11:19.147Z,0.90
2018-08-18T17:13:47.562Z,1.13
2018-08-18T17:16:15.946Z,1.27
2018-08-18T17:18:44.381Z,1.07
2018-08-18T17:21:13.472Z,1.03
2018-08-18T17:23:42.328Z,1.00
2018-08-18T17:26:10.760Z,2.13
2018-08-18T17:28:39.146Z,1.30
2018-08-18T17:31:07.522Z,1.00
2018-08-18T17:33:35.893Z,1.17
2018-08-18T17:36:04.249Z,0.80
2018-08-18T17:38:32.650Z,0.80
2018-08-18T17:41:01.039Z,0.77
2018-08-18T17:43:29.432Z,0.30
2018-08-18T17:45:59.062Z,0.80
2018-08-18T17:48:28.618Z,0.60
2018-08-18T17:50:57.194Z,0.70
2018-08-18T17:53:25.747Z,0.60
2018-08-18T17:55:59.376Z,1.20
2018-08-18T17:58:27.823Z,0.60
2018-08-18T18:00:56.444Z,0.50
2018-08-18T18:03:24.852Z,0.67
2018-08-18T18:05:54.229Z,0.40
2018-08-18T18:08:22.639Z,0.50
2018-08-18T18:10:51.028Z,0.67
2018-08-18T18:13:25.065Z,0.50
2018-08-18T18:15:53.770Z,0.60
2018-08-18T18:18:23.000Z,0.50
2018-08-18T18:20:53.704Z,0.37
2018-08-18T18:23:22.670Z,0.87
2018-08-18T18:25:51.104Z,0.93
2018-08-18T18:28:19.478Z,1.10
2018-08-18T18:30:50.535Z,0.70
2018-08-18T18:33:18.900Z,1.00
2018-08-18T18:35:48.633Z,0.90
2018-08-18T18:38:17.298Z,0.40
2018-08-18T18:40:46.090Z,0.50
2018-08-18T18:43:14.420Z,0.50
2018-08-18T18:45:42.853Z,0.80
2018-08-18T18:48:12.950Z,0.57
2018-08-18T18:50:42.949Z,0.80
2018-08-18T18:53:11.314Z,0.70
2018-08-18T18:55:46.836Z,0.60
2018-08-18T18:58:15.567Z,0.70
2018-08-18T19:00:46.587Z,1.00
2018-08-18T19:03:15.024Z,4.53
2018-08-18T19:05:47.073Z,1.20
2018-08-18T19:08:17.170Z,0.73
2018-08-18T19:10:45.628Z,1.53
2018-08-18T19:13:14.172Z,1.10
2018-08-18T19:15:42.616Z,1.10
2018-08-18T19:18:12.006Z,0.70
2018-08-18T19:20:40.413Z,1.00
2018-08-18T19:23:14.082Z,1.80
2018-08-18T19:25:43.796Z,1.40
2018-08-18T19:28:13.600Z,1.23
2018-08-18T19:30:42.895Z,2.13
2018-08-18T19:33:12.412Z,1.77
2018-08-18T19:35:42.013Z,1.33
2018-08-18T19:38:10.544Z,0.87
2018-08-18T19:40:40.354Z,1.30
2018-08-18T19:43:15.760Z,0.60
2018-08-18T19:45:44.310Z,1.60
2018-08-18T19:48:14.876Z,1.20
2018-08-18T19:50:51.187Z,0.93
2018-08-18T19:53:21.891Z,1.20
2018-08-18T19:55:50.500Z,1.20
2018-08-18T19:58:19.405Z,0.90
2018-08-18T20:00:48.392Z,1.30
2018-08-18T20:03:17.623Z,0.97
2018-08-18T20:05:46.056Z,1.03
2018-08-18T20:08:15.954Z,0.97
2018-08-18T20:10:49.625Z,1.20
2018-08-18T20:13:18.836Z,1.10
2018-08-18T20:15:48.521Z,1.30
2018-08-18T20:18:17.125Z,1.20
2018-08-18T20:20:45.552Z,1.00
2018-08-18T20:23:15.357Z,1.10
2018-08-18T20:25:44.131Z,0.93
2018-08-18T20:28:12.562Z,1.10
2018-08-18T20:30:40.917Z,1.10
2018-08-18T20:33:09.917Z,1.20
2018-08-18T20:35:38.315Z,1.00
2018-08-18T20:38:06.681Z,1.07
2018-08-18T20:40:35.171Z,0.60
2018-08-18T20:43:03.555Z,0.80
2018-08-18T20:45:36.976Z,1.30
2018-08-18T20:48:06.323Z,1.73
2018-08-18T20:50:34.700Z,2.10
2018-08-18T20:53:08.089Z,1.80
2018-08-18T20:55:36.535Z,1.80
2018-08-18T20:58:04.941Z,2.17
2018-08-18T21:00:33.305Z,1.93
2018-08-18T21:03:01.704Z,1.90
2018-08-18T21:05:30.060Z,1.47
2018-08-18T21:08:04.185Z,1.50
2018-08-18T21:10:32.630Z,1.47
2018-08-18T21:13:00.977Z,1.50
2018-08-18T21:15:29.407Z,1.60
2018-08-18T21:17:58.733Z,1.33
2018-08-18T21:20:27.099Z,1.40
2018-08-18T21:22:55.519Z,1.73
2018-08-18T21:25:34.769Z,1.73
2018-08-18T21:28:03.148Z,2.23
2018-08-18T21:30:31.473Z,1.63
2018-08-18T21:32:59.868Z,1.70
2018-08-18T21:35:28.209Z,2.03
2018-08-18T21:37:56.599Z,1.93
2018-08-18T21:40:24.983Z,1.10
2018-08-18T21:42:53.347Z,1.77
2018-08-18T21:45:22.248Z,1.60
2018-08-18T21:47:50.713Z,1.60
2018-08-18T21:50:19.183Z,1.50
2018-08-18T21:52:47.524Z,1.60
2018-08-18T21:55:15.842Z,1.50
2018-08-18T21:57:55.547Z,1.37
2018-08-18T22:00:28.909Z,1.80
2018-08-18T22:02:58.235Z,1.80
2018-08-18T22:05:30.301Z,1.70
2018-08-18T22:07:59.153Z,2.07
2018-08-18T22:10:27.554Z,2.20
2018-08-18T22:12:55.937Z,1.97
2018-08-18T22:15:24.315Z,1.73
2018-08-18T22:17:53.064Z,1.23
2018-08-18T22:20:22.463Z,1.50
2018-08-18T22:22:50.842Z,1.43
2018-08-18T22:25:19.808Z,1.40
2018-08-18T22:27:52.277Z,1.83
2018-08-18T22:30:22.452Z,1.43
2018-08-18T22:32:50.816Z,1.37
2018-08-18T22:35:19.177Z,1.67
2018-08-18T22:37:47.561Z,1.40
2018-08-18T22:40:15.925Z,1.53
2018-08-18T22:42:44.251Z,1.00
2018-08-18T22:45:30.967Z,1.23
2018-08-18T22:47:59.357Z,0.80
2018-08-18T22:50:27.748Z,1.20
2018-08-18T22:52:56.958Z,1.63
2018-08-18T22:55:25.340Z,1.30
2018-08-18T22:57:59.097Z,1.73
2018-08-18T23:00:27.552Z,1.60
2018-08-18T23:02:55.904Z,1.47
2018-08-18T23:05:24.307Z,2.27
2018-08-18T23:07:56.887Z,1.97
2018-08-18T23:10:30.865Z,1.67
2018-08-18T23:12:59.872Z,1.77
2018-08-18T23:15:28.219Z,1.63
2018-08-18T23:17:56.612Z,1.80
2018-08-18T23:20:25.033Z,1.67
2018-08-18T23:22:55.911Z,1.60
2018-08-18T23:25:25.573Z,1.53
2018-08-18T23:27:54.466Z,1.60
2018-08-18T23:30:28.103Z,1.40
2018-08-18T23:32:56.455Z,1.03
2018-08-18T23:35:26.062Z,1.03
2018-08-18T23:37:54.494Z,1.07
2018-08-18T23:40:22.858Z,1.13
2018-08-18T23:42:51.226Z,1.43
2018-08-18T23:45:29.653Z,1.10
2018-08-18T23:48:03.253Z,0.97
2018-08-18T23:50:31.636Z,1.47
2018-08-18T23:53:04.370Z,1.97
2018-08-18T23:55:32.734Z,1.53
2018-08-18T23:58:01.644Z,1.87
